createdAt,value
2022-11-20T00:01:20.901Z,28.03
2022-11-20T00:03:47.569Z,25.83
2022-11-20T00:06:16.832Z,26.47
2022-11-20T00:08:43.654Z,28.73
2022-11-20T00:11:15.789Z,26.00
2022-11-20T00:13:47.126Z,25.77
2022-11-20T00:16:15.205Z,26.50
2022-11-20T00:18:43.273Z,26.33
2022-11-20T00:21:18.801Z,25.97
2022-11-20T00:23:45.727Z,25.67
2022-11-20T00:26:14.868Z,26.60
2022-11-20T00:28:42.018Z,27.00
2022-11-20T00:31:11.517Z,26.73
2022-11-20T00:33:38.082Z,27.20
2022-11-20T00:36:07.067Z,26.50
2022-11-20T00:38:33.909Z,25.53
2022-11-20T00:41:02.184Z,25.90
2022-11-20T00:43:29.021Z,26.50
2022-11-20T00:46:02.631Z,26.67
2022-11-20T00:48:29.563Z,25.87
2022-11-20T00:50:56.412Z,25.90
2022-11-20T00:53:22.916Z,26.73
2022-11-20T00:55:59.505Z,25.83
2022-11-20T00:58:29.836Z,27.47
2022-11-20T01:01:07.699Z,25.73
2022-11-20T01:03:35.658Z,24.97
2022-11-20T01:06:04.242Z,25.03
2022-11-20T01:08:32.775Z,24.47
2022-11-20T01:11:08.547Z,25.93
2022-11-20T01:13:38.430Z,24.57
2022-11-20T01:16:13.804Z,26.63
2022-11-20T01:18:42.440Z,25.27
2022-11-20T01:21:11.843Z,25.43
2022-11-20T01:23:39.932Z,24.30
2022-11-20T01:26:12.291Z,25.93
2022-11-20T01:28:39.420Z,26.50
2022-11-20T01:31:27.317Z,25.00
2022-11-20T01:33:55.697Z,25.03
2022-11-20T01:36:24.632Z,23.90
2022-11-20T01:38:59.413Z,25.57
2022-11-20T01:41:46.084Z,25.63
2022-11-20T01:44:16.128Z,24.17
2022-11-20T01:46:53.955Z,22.97
2022-11-20T01:49:25.494Z,24.13
2022-11-20T01:51:54.213Z,24.73
2022-11-20T01:54:26.560Z,25.30
2022-11-20T01:56:55.436Z,25.00
2022-11-20T01:59:23.845Z,24.33
2022-11-20T02:01:50.567Z,25.53
2022-11-20T02:04:17.694Z,25.10
2022-11-20T02:06:49.986Z,24.40
2022-11-20T02:09:17.162Z,24.53
2022-11-20T02:11:43.752Z,24.40
2022-11-20T02:14:11.179Z,24.00
2022-11-20T02:16:41.468Z,25.10
2022-11-20T02:19:12.806Z,22.63
2022-11-20T02:22:03.824Z,24.90
2022-11-20T02:24:30.347Z,24.93
2022-11-20T02:27:00.972Z,23.40
2022-11-20T02:29:46.322Z,24.87
2022-11-20T02:32:24.325Z,25.10
2022-11-20T02:34:50.947Z,25.43
2022-11-20T02:37:17.873Z,24.87
2022-11-20T02:39:45.886Z,25.27
2022-11-20T02:42:12.637Z,25.97
2022-11-20T02:44:39.228Z,24.53
2022-11-20T02:47:05.798Z,24.53
2022-11-20T02:49:32.491Z,25.50
2022-11-20T02:51:58.985Z,25.63
2022-11-20T02:54:25.953Z,24.83
2022-11-20T02:56:52.868Z,25.80
2022-11-20T02:59:19.542Z,25.40
2022-11-20T03:01:46.204Z,25.00
2022-11-20T03:04:12.739Z,25.53
2022-11-20T03:06:39.165Z,26.60
2022-11-20T03:09:05.866Z,26.13
2022-11-20T03:11:32.501Z,25.07
2022-11-20T03:13:58.943Z,26.30
2022-11-20T03:16:25.536Z,26.07
2022-11-20T03:18:53.876Z,25.07
2022-11-20T03:21:20.285Z,26.23
2022-11-20T03:23:46.789Z,27.13
2022-11-20T03:26:16.863Z,25.87
2022-11-20T03:28:47.814Z,24.83
2022-11-20T03:31:15.363Z,26.77
2022-11-20T03:33:42.955Z,26.43
2022-11-20T03:36:11.972Z,24.73
2022-11-20T03:38:38.859Z,24.87
2022-11-20T03:41:13.810Z,27.53
2022-11-20T03:43:40.598Z,25.57
2022-11-20T03:46:07.220Z,26.10
2022-11-20T03:48:35.914Z,28.30
2022-11-20T03:51:16.824Z,27.23
2022-11-20T03:53:45.184Z,27.40
2022-11-20T03:56:12.815Z,26.87
2022-11-20T03:58:43.081Z,26.03
2022-11-20T04:01:34.152Z,26.23
2022-11-20T04:04:00.750Z,27.47
2022-11-20T04:06:29.963Z,26.00
2022-11-20T04:08:57.919Z,26.93
2022-11-20T04:11:29.587Z,25.60
2022-11-20T04:14:01.063Z,26.50
2022-11-20T04:16:30.322Z,26.47
2022-11-20T04:18:58.556Z,27.43
2022-11-20T04:21:26.050Z,26.63
2022-11-20T04:23:56.075Z,26.53
2022-11-20T04:26:24.384Z,27.53
2022-11-20T04:28:51.082Z,28.20
2022-11-20T04:31:19.923Z,27.07
2022-11-20T04:33:47.024Z,27.97
2022-11-20T04:36:20.131Z,28.20
2022-11-20T04:38:48.703Z,27.37
2022-11-20T04:41:18.924Z,28.50
2022-11-20T04:43:50.403Z,27.27
2022-11-20T04:46:18.272Z,27.40
2022-11-20T04:48:44.771Z,28.57
2022-11-20T04:51:11.464Z,26.67
2022-11-20T04:53:37.992Z,28.07
2022-11-20T04:56:07.355Z,27.93
2022-11-20T04:58:35.163Z,28.57
2022-11-20T05:01:06.617Z,28.23
2022-11-20T05:03:35.538Z,27.00
2022-11-20T05:06:06.449Z,27.27
2022-11-20T05:08:34.151Z,27.43
2022-11-20T05:11:14.714Z,28.97
2022-11-20T05:13:41.818Z,27.17
2022-11-20T05:16:10.636Z,27.83
2022-11-20T05:18:38.089Z,26.87
2022-11-20T05:21:05.291Z,26.20
2022-11-20T05:23:32.995Z,26.63
2022-11-20T05:26:00.124Z,26.87
2022-11-20T05:28:27.721Z,25.73
2022-11-20T05:30:54.239Z,26.43
2022-11-20T05:33:20.991Z,26.00
2022-11-20T05:35:47.705Z,26.70
2022-11-20T05:38:14.535Z,23.97
2022-11-20T05:40:41.186Z,25.40
2022-11-20T05:43:07.703Z,25.10
2022-11-20T05:45:35.418Z,26.17
2022-11-20T05:48:02.156Z,24.90
2022-11-20T05:50:29.246Z,26.50
2022-11-20T05:52:56.333Z,24.90
2022-11-20T05:55:23.122Z,24.50
2022-11-20T05:57:49.575Z,24.37
2022-11-20T06:00:16.774Z,24.10
2022-11-20T06:02:43.558Z,25.43
2022-11-20T06:05:10.278Z,25.70
2022-11-20T06:07:36.732Z,24.77
2022-11-20T06:10:03.748Z,25.13
2022-11-20T06:12:32.754Z,25.27
2022-11-20T06:14:59.556Z,24.17
2022-11-20T06:17:26.209Z,24.43
2022-11-20T06:19:52.622Z,23.90
2022-11-20T06:22:19.393Z,24.73
2022-11-20T06:24:46.070Z,25.00
2022-11-20T06:27:12.584Z,25.07
2022-11-20T06:29:39.256Z,23.53
2022-11-20T06:32:06.091Z,25.10
2022-11-20T06:34:32.530Z,25.77
2022-11-20T06:36:59.536Z,25.97
2022-11-20T06:39:26.294Z,24.03
2022-11-20T06:41:58.392Z,23.87
2022-11-20T06:44:25.650Z,24.77
2022-11-20T06:46:52.231Z,24.33
2022-11-20T06:49:19.106Z,24.83
2022-11-20T06:51:45.937Z,24.50
2022-11-20T06:54:12.494Z,24.47
2022-11-20T06:56:38.909Z,24.43
2022-11-20T06:59:07.051Z,24.77
2022-11-20T07:01:34.073Z,24.60
2022-11-20T07:04:00.539Z,24.63
2022-11-20T07:06:27.288Z,23.10
2022-11-20T07:08:53.945Z,24.20
2022-11-20T07:11:20.399Z,24.80
2022-11-20T07:13:46.956Z,24.37
2022-11-20T07:16:13.743Z,24.37
2022-11-20T07:18:40.295Z,26.93
2022-11-20T07:21:08.938Z,24.90
2022-11-20T07:23:36.001Z,24.57
2022-11-20T07:26:09.972Z,26.40
2022-11-20T07:28:36.918Z,24.50
2022-11-20T07:31:03.889Z,25.23
2022-11-20T07:33:30.391Z,25.37
2022-11-20T07:35:57.141Z,25.50
2022-11-20T07:38:23.709Z,25.17
2022-11-20T07:40:54.820Z,25.60
2022-11-20T07:43:21.459Z,25.53
2022-11-20T07:45:47.887Z,23.57
2022-11-20T07:48:14.342Z,26.67
2022-11-20T07:50:41.303Z,25.60
2022-11-20T07:53:07.938Z,25.00
2022-11-20T07:55:37.897Z,26.97
2022-11-20T07:58:04.671Z,26.13
2022-11-20T08:00:31.657Z,26.57
2022-11-20T08:02:58.287Z,26.47
2022-11-20T08:05:24.945Z,25.73
2022-11-20T08:07:51.385Z,25.33
2022-11-20T08:10:17.989Z,25.53
2022-11-20T08:13:07.169Z,25.27
2022-11-20T08:15:37.248Z,26.17
2022-11-20T08:18:30.027Z,25.67
2022-11-20T08:20:55.902Z,23.73
2022-11-20T08:23:23.858Z,22.77
2022-11-20T08:26:09.089Z,22.67
2022-11-20T08:28:41.050Z,23.27
2022-11-20T08:31:07.570Z,24.93
2022-11-20T08:33:34.698Z,24.17
2022-11-20T08:36:05.100Z,24.77
2022-11-20T08:38:32.204Z,25.23
2022-11-20T08:41:18.960Z,25.30
2022-11-20T08:43:45.536Z,25.83
2022-11-20T08:46:12.412Z,25.13
2022-11-20T08:48:39.091Z,25.70
2022-11-20T08:51:05.715Z,24.90
2022-11-20T08:53:32.526Z,25.03
2022-11-20T08:55:59.498Z,25.03
2022-11-20T08:58:26.540Z,25.13
2022-11-20T09:00:53.361Z,25.37
2022-11-20T09:03:20.340Z,24.30
2022-11-20T09:05:46.767Z,26.67
2022-11-20T09:08:13.264Z,26.50
2022-11-20T09:10:40.876Z,27.40
2022-11-20T09:13:10.323Z,26.10
2022-11-20T09:15:37.664Z,25.70
2022-11-20T09:18:05.880Z,25.37
2022-11-20T09:20:32.734Z,25.43
2022-11-20T09:22:59.306Z,25.20
2022-11-20T09:25:26.084Z,27.20
2022-11-20T09:27:59.792Z,26.73
2022-11-20T09:30:27.082Z,27.50
2022-11-20T09:32:53.940Z,29.57
2022-11-20T09:35:20.582Z,25.83
2022-11-20T09:37:47.317Z,28.43
2022-11-20T09:40:29.133Z,26.17
2022-11-20T09:43:14.235Z,28.13
2022-11-20T09:46:08.446Z,26.40
2022-11-20T09:48:47.440Z,28.53
2022-11-20T09:51:36.477Z,27.73
2022-11-20T09:54:15.268Z,28.37
2022-11-20T09:56:44.986Z,25.87
2022-11-20T09:59:50.296Z,26.47
2022-11-20T10:02:20.702Z,27.20
2022-11-20T10:04:54.909Z,27.73
2022-11-20T10:07:33.293Z,28.47
2022-11-20T10:10:00.991Z,27.00
2022-11-20T10:12:59.578Z,27.00
2022-11-20T10:16:07.471Z,28.47
2022-11-20T10:18:43.286Z,28.00
2022-11-20T10:21:27.003Z,26.97
2022-11-20T10:24:20.761Z,25.97
2022-11-20T10:26:53.683Z,25.83
2022-11-20T10:29:24.021Z,28.37
2022-11-20T10:32:16.196Z,27.17
2022-11-20T10:34:50.712Z,26.60
2022-11-20T10:37:20.447Z,27.70
2022-11-20T10:39:58.842Z,26.00
2022-11-20T10:42:31.669Z,27.10
2022-11-20T10:45:44.614Z,27.20
2022-11-20T10:48:16.538Z,27.03
2022-11-20T10:51:10.087Z,26.20
2022-11-20T10:54:02.264Z,25.83
2022-11-20T10:56:36.047Z,26.83
2022-11-20T10:59:29.026Z,25.03
2022-11-20T11:02:00.552Z,24.47
2022-11-20T11:04:35.807Z,24.70
2022-11-20T11:07:09.528Z,26.00
2022-11-20T11:09:40.881Z,25.80
2022-11-20T11:12:09.373Z,25.67
2022-11-20T11:14:50.892Z,26.13
2022-11-20T11:17:30.656Z,26.00
2022-11-20T11:20:12.458Z,26.47
2022-11-20T11:22:48.974Z,25.23
2022-11-20T11:25:36.326Z,24.87
2022-11-20T11:28:21.294Z,25.50
2022-11-20T11:30:50.296Z,25.73
2022-11-20T11:33:31.379Z,24.37
2022-11-20T11:36:04.133Z,24.07
2022-11-20T11:38:42.284Z,26.23
2022-11-20T11:41:15.007Z,24.23
2022-11-20T11:44:10.867Z,24.20
2022-11-20T11:46:38.014Z,22.53
2022-11-20T11:49:04.404Z,25.20
2022-11-20T11:51:35.612Z,22.40
2022-11-20T11:54:04.941Z,23.70
2022-11-20T11:56:31.865Z,23.53
2022-11-20T11:59:02.050Z,23.00
2022-11-20T12:01:39.834Z,23.00
2022-11-20T12:04:35.880Z,23.00
2022-11-20T12:07:31.031Z,22.13
2022-11-20T12:09:55.495Z,20.83
2022-11-20T12:12:28.126Z,21.47
2022-11-20T12:14:55.804Z,23.20
2022-11-20T12:17:22.281Z,22.20
2022-11-20T12:19:49.593Z,22.63
2022-11-20T12:22:37.265Z,22.07
2022-11-20T12:25:20.881Z,21.20
2022-11-20T12:28:05.400Z,22.33
2022-11-20T12:30:35.377Z,20.93
2022-11-20T12:33:29.936Z,21.63
2022-11-20T12:36:08.559Z,21.27
2022-11-20T12:38:59.573Z,20.07
2022-11-20T12:41:59.511Z,20.87
2022-11-20T12:45:13.842Z,21.77
2022-11-20T12:47:45.364Z,21.27
2022-11-20T12:50:27.406Z,22.07
2022-11-20T12:52:57.677Z,21.03
2022-11-20T12:55:52.113Z,21.33
2022-11-20T12:58:42.103Z,19.87
2022-11-20T13:01:49.724Z,20.90
2022-11-20T13:04:49.189Z,21.77
2022-11-20T13:07:16.444Z,21.40
2022-11-20T13:09:48.137Z,22.23
2022-11-20T13:12:19.761Z,21.43
2022-11-20T13:15:01.462Z,22.10
2022-11-20T13:18:04.281Z,22.27
2022-11-20T13:20:31.415Z,21.00
2022-11-20T13:22:58.787Z,21.43
2022-11-20T13:25:27.471Z,21.20
2022-11-20T13:27:54.931Z,22.10
2022-11-20T13:30:25.989Z,19.73
2022-11-20T13:33:06.487Z,18.00
2022-11-20T13:35:38.489Z,20.47
2022-11-20T13:38:15.629Z,18.97
2022-11-20T13:40:56.523Z,20.57
2022-11-20T13:43:40.753Z,19.73
2022-11-20T13:46:09.305Z,20.83
2022-11-20T13:48:43.863Z,22.33
2022-11-20T13:51:38.530Z,20.80
2022-11-20T13:54:42.592Z,21.13
2022-11-20T13:57:37.219Z,23.80
2022-11-20T14:00:14.450Z,22.33
2022-11-20T14:02:41.652Z,22.53
2022-11-20T14:05:20.712Z,22.07
2022-11-20T14:07:48.550Z,23.97
2022-11-20T14:10:32.289Z,24.13
2022-11-20T14:12:59.431Z,23.70
2022-11-20T14:15:32.790Z,22.93
2022-11-20T14:17:59.877Z,22.67
2022-11-20T14:20:28.947Z,22.93
2022-11-20T14:22:56.140Z,22.63
2022-11-20T14:25:27.783Z,23.80
2022-11-20T14:27:58.904Z,24.53
2022-11-20T14:30:27.663Z,24.37
2022-11-20T14:32:56.714Z,22.63
2022-11-20T14:35:28.571Z,24.07
2022-11-20T14:37:56.018Z,25.23
2022-11-20T14:40:25.140Z,25.77
2022-11-20T14:42:52.125Z,25.97
2022-11-20T14:45:19.388Z,23.93
2022-11-20T14:47:46.260Z,23.87
2022-11-20T14:50:24.581Z,23.83
2022-11-20T14:53:01.593Z,26.47
2022-11-20T14:55:29.420Z,27.00
2022-11-20T14:57:57.713Z,27.53
2022-11-20T15:00:24.798Z,27.90
2022-11-20T15:02:52.643Z,27.10
2022-11-20T15:05:21.837Z,27.47
2022-11-20T15:07:51.020Z,29.10
2022-11-20T15:10:25.375Z,28.60
2022-11-20T15:12:57.944Z,28.40
2022-11-20T15:15:31.481Z,33.87
2022-11-20T15:17:58.659Z,28.87
2022-11-20T15:20:33.232Z,28.17
2022-11-20T15:23:00.129Z,26.57
2022-11-20T15:25:26.794Z,27.20
2022-11-20T15:27:56.668Z,27.47
2022-11-20T15:30:24.247Z,25.93
2022-11-20T15:32:50.738Z,26.93
2022-11-20T15:35:17.481Z,25.67
2022-11-20T15:37:44.041Z,26.80
2022-11-20T15:40:11.142Z,26.80
2022-11-20T15:42:37.876Z,26.57
2022-11-20T15:45:04.936Z,27.43
2022-11-20T15:47:35.654Z,27.33
2022-11-20T15:50:02.275Z,27.97
2022-11-20T15:52:36.304Z,27.53
2022-11-20T15:55:11.030Z,26.50
2022-11-20T15:57:37.757Z,27.10
2022-11-20T16:00:04.804Z,27.23
2022-11-20T16:02:31.844Z,27.97
2022-11-20T16:04:58.582Z,27.47
2022-11-20T16:07:25.159Z,26.93
2022-11-20T16:09:56.816Z,26.03
2022-11-20T16:12:42.381Z,30.60
2022-11-20T16:15:28.991Z,34.97
2022-11-20T16:17:55.535Z,29.20
2022-11-20T16:20:22.559Z,29.00
2022-11-20T16:22:50.157Z,27.93
2022-11-20T16:25:16.957Z,28.20
2022-11-20T16:27:43.522Z,27.23
2022-11-20T16:30:11.283Z,27.80
2022-11-20T16:32:39.596Z,27.13
2022-11-20T16:35:08.529Z,27.73
2022-11-20T16:37:38.120Z,25.30
2022-11-20T16:40:05.209Z,26.53
2022-11-20T16:42:35.219Z,27.97
2022-11-20T16:45:01.840Z,27.10
2022-11-20T16:47:28.481Z,26.73
2022-11-20T16:49:54.958Z,27.20
2022-11-20T16:52:21.570Z,25.90
2022-11-20T16:54:48.114Z,25.93
2022-11-20T16:57:14.609Z,26.60
2022-11-20T16:59:41.656Z,25.97
2022-11-20T17:02:10.566Z,27.63
2022-11-20T17:04:37.625Z,26.93
2022-11-20T17:07:08.139Z,26.03
2022-11-20T17:09:35.642Z,27.00
2022-11-20T17:12:02.193Z,24.90
2022-11-20T17:14:28.988Z,26.93
2022-11-20T17:16:55.515Z,26.70
2022-11-20T17:19:22.001Z,25.93
2022-11-20T17:21:48.898Z,26.53
2022-11-20T17:24:18.405Z,26.37
2022-11-20T17:26:45.737Z,26.00
2022-11-20T17:29:15.071Z,27.27
2022-11-20T17:31:42.560Z,26.77
2022-11-20T17:34:12.139Z,27.37
2022-11-20T17:36:45.436Z,26.77
2022-11-20T17:39:14.072Z,26.23
2022-11-20T17:41:40.944Z,28.67
2022-11-20T17:44:10.626Z,27.97
2022-11-20T17:46:37.239Z,29.33
2022-11-20T17:49:04.881Z,28.03
2022-11-20T17:51:33.865Z,27.70
2022-11-20T17:54:03.490Z,29.10
2022-11-20T17:56:53.524Z,25.33
2022-11-20T17:59:20.391Z,26.83
2022-11-20T18:01:47.277Z,26.90
2022-11-20T18:04:14.309Z,26.70
2022-11-20T18:06:41.197Z,26.23
2022-11-20T18:09:07.805Z,26.43
2022-11-20T18:11:39.763Z,26.07
2022-11-20T18:14:29.177Z,27.67
2022-11-20T18:16:58.094Z,27.97
2022-11-20T18:19:31.996Z,25.57
2022-11-20T18:22:01.294Z,26.00
2022-11-20T18:24:27.901Z,27.63
2022-11-20T18:26:54.319Z,27.67
2022-11-20T18:29:21.090Z,26.60
2022-11-20T18:31:48.778Z,27.63
2022-11-20T18:34:16.037Z,28.37
2022-11-20T18:36:43.045Z,27.00
2022-11-20T18:39:11.922Z,26.67
2022-11-20T18:41:57.719Z,28.17
2022-11-20T18:44:46.080Z,26.67
2022-11-20T18:47:15.792Z,26.67
2022-11-20T18:49:46.188Z,28.53
2022-11-20T18:52:13.336Z,26.90
2022-11-20T18:54:39.838Z,26.93
2022-11-20T18:57:06.578Z,28.13
2022-11-20T18:59:33.223Z,28.20
2022-11-20T19:01:59.827Z,28.57
2022-11-20T19:04:27.017Z,27.97
2022-11-20T19:06:56.211Z,29.10
2022-11-20T19:09:23.865Z,30.10
2022-11-20T19:11:50.946Z,29.03
2022-11-20T19:14:17.421Z,28.70
2022-11-20T19:16:43.884Z,28.67
2022-11-20T19:19:10.745Z,29.67
2022-11-20T19:21:37.306Z,28.60
2022-11-20T19:24:04.402Z,29.17
2022-11-20T19:26:31.491Z,31.90
2022-11-20T19:28:58.872Z,30.87
2022-11-20T19:31:29.277Z,30.13
2022-11-20T19:33:59.394Z,30.03
2022-11-20T19:36:28.704Z,30.73
2022-11-20T19:38:55.813Z,31.53
2022-11-20T19:41:29.072Z,32.27
2022-11-20T19:43:57.656Z,31.80
2022-11-20T19:46:25.373Z,31.90
2022-11-20T19:48:52.317Z,33.27
2022-11-20T19:51:21.222Z,32.80
2022-11-20T19:53:48.222Z,32.33
2022-11-20T19:56:14.963Z,33.20
2022-11-20T19:58:41.907Z,31.93
2022-11-20T20:01:10.530Z,31.47
2022-11-20T20:03:37.807Z,33.13
2022-11-20T20:06:05.165Z,31.83
2022-11-20T20:08:31.841Z,32.63
2022-11-20T20:10:59.767Z,32.20
2022-11-20T20:13:27.019Z,33.20
2022-11-20T20:15:53.564Z,32.57
2022-11-20T20:18:20.016Z,32.90
2022-11-20T20:20:46.519Z,33.70
2022-11-20T20:23:13.045Z,33.43
2022-11-20T20:25:39.495Z,34.40
2022-11-20T20:28:05.939Z,33.20
2022-11-20T20:30:32.427Z,34.97
2022-11-20T20:32:58.983Z,34.70
2022-11-20T20:35:25.644Z,36.13
2022-11-20T20:37:52.265Z,34.60
2022-11-20T20:40:19.272Z,35.87
2022-11-20T20:42:45.844Z,35.50
2022-11-20T20:45:12.419Z,35.83
2022-11-20T20:47:40.505Z,36.97
2022-11-20T20:50:09.857Z,35.17
2022-11-20T20:52:36.611Z,35.33
2022-11-20T20:55:03.777Z,34.63
2022-11-20T20:57:30.533Z,36.67
2022-11-20T20:59:57.130Z,37.00
2022-11-20T21:02:23.979Z,35.73
2022-11-20T21:04:50.902Z,36.57
2022-11-20T21:07:17.892Z,35.20
2022-11-20T21:09:44.629Z,39.20
2022-11-20T21:12:11.745Z,35.80
2022-11-20T21:14:38.319Z,37.10
2022-11-20T21:17:04.956Z,36.70
2022-11-20T21:19:32.316Z,35.67
2022-11-20T21:21:59.007Z,35.80
2022-11-20T21:24:30.691Z,35.40
2022-11-20T21:26:57.745Z,36.53
2022-11-20T21:29:25.550Z,37.33
2022-11-20T21:31:53.301Z,37.13
2022-11-20T21:34:21.034Z,35.43
2022-11-20T21:36:48.038Z,34.87
2022-11-20T21:39:15.550Z,36.13
2022-11-20T21:41:42.183Z,34.90
2022-11-20T21:46:59.036Z,37.07
2022-11-20T21:49:25.822Z,36.27
2022-11-20T21:51:53.717Z,36.40
2022-11-20T21:54:20.283Z,37.37
2022-11-20T21:56:46.807Z,36.23
2022-11-20T21:59:13.972Z,39.03
2022-11-20T22:01:40.550Z,38.23
2022-11-20T22:04:08.120Z,39.80
2022-11-20T22:06:37.680Z,36.53
2022-11-20T22:09:04.250Z,37.40
2022-11-20T22:11:30.880Z,38.63
2022-11-20T22:14:16.107Z,39.23
2022-11-20T22:16:42.543Z,38.20
2022-11-20T22:19:09.293Z,37.87
2022-11-20T22:21:36.058Z,39.70
2022-11-20T22:24:02.728Z,37.97
2022-11-20T22:26:35.004Z,38.33
2022-11-20T22:29:05.357Z,38.67
2022-11-20T22:31:31.923Z,39.60
2022-11-20T22:33:59.319Z,38.33
2022-11-20T22:36:28.456Z,37.50
2022-11-20T22:38:55.350Z,37.57
2022-11-20T22:41:27.372Z,39.03
2022-11-20T22:43:56.358Z,39.73
2022-11-20T22:46:22.923Z,38.07
2022-11-20T22:48:50.463Z,38.57
2022-11-20T22:51:17.916Z,37.33
2022-11-20T22:53:44.675Z,38.97
2022-11-20T22:56:12.572Z,38.63
2022-11-20T22:58:40.530Z,40.10
2022-11-20T23:01:35.153Z,38.67
2022-11-20T23:04:04.143Z,39.23
2022-11-20T23:06:34.244Z,40.10
2022-11-20T23:09:00.929Z,40.23
2022-11-20T23:11:28.855Z,40.63
2022-11-20T23:14:15.202Z,40.83
2022-11-20T23:16:41.858Z,38.53
2022-11-20T23:19:11.127Z,38.77
2022-11-20T23:21:39.196Z,41.80
2022-11-20T23:24:06.186Z,40.03
2022-11-20T23:26:35.068Z,41.17
2022-11-20T23:29:01.814Z,40.60
2022-11-20T23:31:29.714Z,43.40
2022-11-20T23:33:56.364Z,41.80
2022-11-20T23:36:22.942Z,42.10
2022-11-20T23:38:49.682Z,41.40
2022-11-20T23:41:16.532Z,43.50
2022-11-20T23:43:43.043Z,43.43
2022-11-20T23:46:15.089Z,41.83
2022-11-20T23:48:43.109Z,43.57
2022-11-20T23:51:09.576Z,42.07
2022-11-20T23:53:36.240Z,43.80
2022-11-20T23:56:04.899Z,43.77
2022-11-20T23:58:36.743Z,44.30
